Time;durP1;ratioP1;P1;durP2;ratioP2;P2;SDS_P1;SDS_P2;PMS_P1;PMS_P2;Temp;Humidity;BMP_temperature;BMP_pressure;BME280_temperature;BME280_humidity;BME280_pressure;Samples;Min_cycle;Max_cycle;Signal;HPM_P1;HPM_P2
2023/02/10 00:01:33;;;;;;;75.70;29.23;;;2.70;99.90;;;1.02;87.46;102521.34;4994207;28;20044;-72
2023/02/10 00:03:59;;;;;;;63.10;28.25;;;2.70;99.90;;;1.01;87.63;102514.41;4990483;28;20066;-71
2023/02/10 00:06:27;;;;;;;67.97;27.05;;;2.70;99.90;;;1.05;88.08;102512.75;4974013;28;20117;-71
2023/02/10 00:08:59;;;;;;;65.28;27.92;;;2.70;99.90;;;1.07;88.00;102511.06;4997445;28;20038;-71
2023/02/10 00:14:12;;;;;;;62.63;27.40;;;2.70;99.90;;;1.05;88.36;102517.94;4994043;28;20037;-71
2023/02/10 00:16:38;;;;;;;62.05;28.00;;;2.80;99.90;;;1.09;88.43;102511.97;4990687;28;20830;-71
2023/02/10 00:19:05;;;;;;;71.53;28.30;;;2.80;99.90;;;1.11;88.46;102512.91;4987047;28;20038;-71
2023/02/10 00:21:31;;;;;;;65.05;28.38;;;2.80;99.90;;;1.13;88.33;102512.06;4982479;28;20030;-72
2023/02/10 00:23:56;;;;;;;63.83;29.30;;;2.80;99.90;;;1.15;88.75;102518.19;4989629;28;20108;-71
2023/02/10 00:26:25;;;;;;;61.70;28.52;;;2.80;99.90;;;1.17;88.88;102521.69;5003797;28;20780;-72
2023/02/10 00:28:51;;;;;;;61.88;28.40;;;2.80;99.90;;;1.21;89.02;102522.63;4988539;28;20038;-71
2023/02/10 00:31:18;;;;;;;57.55;28.25;;;2.80;99.90;;;1.25;89.10;102529.59;4979918;28;20065;-71
2023/02/10 00:33:45;;;;;;;61.35;29.60;;;2.90;99.90;;;1.23;88.94;102534.78;4990656;28;20029;-71
2023/02/10 00:36:13;;;;;;;67.82;28.27;;;2.90;99.90;;;1.21;89.15;102538.19;5006131;28;20032;-72
2023/02/10 00:38:41;;;;;;;68.03;30.73;;;2.90;99.90;;;1.21;89.45;102544.25;4995342;28;20054;-71
2023/02/10 00:41:17;;;;;;;73.43;29.55;;;2.90;99.90;;;1.19;89.37;102529.50;4989407;28;20411;-71
2023/02/10 00:43:44;;;;;;;66.20;28.85;;;2.80;99.90;;;1.13;89.82;102522.47;4994597;28;20035;-71
2023/02/10 00:46:11;;;;;;;75.38;30.27;;;2.80;99.90;;;1.13;90.29;102519.84;4993565;28;20065;-71
2023/02/10 00:48:37;;;;;;;62.92;28.83;;;2.80;99.90;;;1.09;90.28;102506.78;4985505;28;20122;-71
2023/02/10 00:51:04;;;;;;;78.13;31.08;;;2.70;99.90;;;1.06;90.25;102506.72;4988885;28;20518;-71
2023/02/10 00:53:31;;;;;;;73.47;31.20;;;2.70;99.90;;;1.02;91.02;102498.88;4981701;28;20116;-71
2023/02/10 00:55:59;;;;;;;66.13;30.30;;;2.70;99.90;;;1.03;91.33;102499.75;4994556;28;20093;-71
2023/02/10 00:58:25;;;;;;;76.45;31.10;;;2.70;99.90;;;1.08;91.71;102498.16;4996316;28;21226;-71
2023/02/10 01:00:53;;;;;;;74.03;29.98;;;2.70;99.90;;;1.07;91.66;102503.28;4993101;28;20034;-71
2023/02/10 01:03:19;;;;;;;67.00;30.73;;;2.80;99.90;;;1.13;91.95;102500.84;4987331;28;20034;-71
2023/02/10 01:05:45;;;;;;;75.13;30.80;;;2.80;99.90;;;1.13;92.32;102503.44;4989877;28;20064;-72
2023/02/10 01:08:12;;;;;;;87.25;30.10;;;2.80;99.90;;;1.11;92.40;102502.50;4993716;28;20026;-71
2023/02/10 01:10:38;;;;;;;71.90;32.08;;;2.80;99.90;;;1.11;92.55;102502.50;4989355;28;20058;-72
2023/02/10 01:13:07;;;;;;;73.18;31.30;;;2.80;99.90;;;1.09;92.65;102504.19;4993322;28;20065;-71
2023/02/10 01:15:33;;;;;;;72.30;30.88;;;2.70;99.90;;;1.02;92.68;102509.25;4988296;28;20030;-71
2023/02/10 01:17:59;;;;;;;84.43;32.40;;;2.70;99.90;;;0.94;93.03;102504.75;4989986;28;20092;-72
2023/02/10 01:20:26;;;;;;;78.30;33.03;;;2.70;99.90;;;0.88;93.19;102499.41;4993342;28;20034;-72
2023/02/10 01:22:52;;;;;;;78.13;32.50;;;2.60;99.90;;;0.84;93.55;102505.38;4988822;28;20122;-72
2023/02/10 01:25:18;;;;;;;88.95;33.15;;;2.50;99.90;;;0.75;93.52;102490.50;4986460;28;20161;-71
2023/02/10 01:27:44;;;;;;;79.35;32.40;;;2.50;99.90;;;0.71;94.13;102496.44;4992970;28;20042;-71
2023/02/10 01:30:12;;;;;;;92.85;33.83;;;2.40;99.90;;;0.69;94.31;102495.53;4989487;28;20046;-71
2023/02/10 01:32:38;;;;;;;80.60;33.65;;;2.40;99.90;;;0.66;94.84;102498.94;4995980;28;20097;-71
2023/02/10 01:35:05;;;;;;;86.88;33.60;;;2.40;99.90;;;0.62;94.85;102491.94;5002328;28;20031;-71
2023/02/10 01:37:31;;;;;;;82.15;33.92;;;2.30;99.90;;;0.60;95.38;102497.09;4986691;28;20070;-71
2023/02/10 01:39:56;;;;;;;76.55;34.20;;;2.30;99.90;;;0.57;95.63;102502.19;4985937;28;20440;-71
2023/02/10 01:42:22;;;;;;;78.22;32.97;;;2.30;99.90;;;0.55;95.87;102503.00;4980383;28;20154;-71
2023/02/10 01:44:48;;;;;;;75.35;33.78;;;2.30;99.90;;;0.54;96.26;102504.72;5004061;28;20428;-72
2023/02/10 01:47:14;;;;;;;82.68;33.78;;;2.30;99.90;;;0.50;96.05;102497.72;4988658;28;20086;-72
2023/02/10 01:49:46;;;;;;;86.90;33.97;;;2.20;99.90;;;0.47;96.48;102505.41;4986813;28;20506;-71
2023/02/10 01:52:29;;;;;;;91.95;34.42;;;2.20;99.90;;;0.45;96.67;102501.03;4995511;28;20101;-72
2023/02/10 01:55:09;;;;;;;88.43;35.55;;;2.10;99.90;;;0.38;97.02;102503.47;4980350;28;20038;-72
2023/02/10 01:57:37;;;;;;;83.03;34.20;;;2.10;99.90;;;0.35;97.07;102507.72;4986748;28;20038;-72
2023/02/10 02:00:07;;;;;;;86.90;36.30;;;2.10;99.90;;;0.30;97.13;102496.34;4980130;28;20022;-72
2023/02/10 02:02:34;;;;;;;97.25;35.63;;;2.00;99.90;;;0.28;97.25;102504.13;4993278;28;20113;-71
2023/02/10 02:05:03;;;;;;;89.05;36.17;;;2.00;99.90;;;0.25;97.88;102500.56;4988244;28;20045;-72
2023/02/10 02:07:35;;;;;;;85.80;35.08;;;2.00;99.90;;;0.23;97.98;102505.69;4993462;28;20579;-71
2023/02/10 02:10:05;;;;;;;91.75;35.50;;;2.00;99.90;;;0.24;98.05;102507.47;4995977;28;20044;-71
2023/02/10 02:13:10;;;;;;;92.35;36.13;;;1.90;99.90;;;0.17;98.34;102505.53;4993767;28;20490;-71
2023/02/10 02:15:46;;;;;;;93.40;36.33;;;1.90;99.90;;;0.11;98.68;102501.09;4957636;28;20046;-72
2023/02/10 02:18:36;;;;;;;93.68;37.13;;;1.90;99.90;;;0.11;99.16;102505.38;4989419;28;20030;-71
2023/02/10 02:21:23;;;;;;;94.03;35.78;;;1.90;99.90;;;0.11;99.83;102503.69;4990103;28;20141;-72
2023/02/10 02:24:14;;;;;;;93.38;36.20;;;1.90;99.90;;;0.15;100.00;102504.63;4987068;28;20101;-72
2023/02/10 02:26:48;;;;;;;89.05;35.97;;;1.90;99.90;;;0.15;100.00;102510.72;4987758;28;20037;-72
2023/02/10 02:29:31;;;;;;;99.15;37.58;;;1.90;99.90;;;0.16;100.00;102512.44;4985557;28;20039;-73
2023/02/10 02:32:21;;;;;;;84.80;34.88;;;1.90;99.90;;;0.15;100.00;102512.41;4986969;28;20550;-72
2023/02/10 02:34:56;;;;;;;99.30;36.80;;;1.90;99.90;;;0.14;100.00;102516.72;5004264;28;20109;-71
2023/02/10 02:37:40;;;;;;;85.15;36.20;;;1.90;99.90;;;0.23;100.00;102515.19;4990004;28;20397;-72
2023/02/10 02:40:07;;;;;;;91.90;35.22;;;2.00;99.90;;;0.30;100.00;102524.88;4978800;28;20049;-71
2023/02/10 02:42:33;;;;;;;89.18;36.88;;;2.00;99.90;;;0.40;100.00;102524.25;4981490;28;20034;-73
2023/02/10 02:45:14;;;;;;;94.32;37.28;;;2.10;99.90;;;0.50;100.00;102525.38;4977701;28;20546;-71
2023/02/10 02:48:03;;;;;;;86.07;35.83;;;2.20;99.90;;;0.57;100.00;102532.44;4990347;28;20022;-72
2023/02/10 02:51:12;;;;;;;98.32;36.33;;;2.30;99.90;;;0.66;100.00;102519.69;4988236;28;20039;-72
2023/02/10 02:54:13;;;;;;;99.25;37.53;;;2.30;99.90;;;0.73;100.00;102520.69;4950583;28;20073;-72
2023/02/10 02:57:03;;;;;;;84.85;36.90;;;2.40;99.90;;;0.78;100.00;102526.88;4981145;28;20041;-72
2023/02/10 02:59:40;;;;;;;88.82;35.85;;;2.50;99.90;;;0.85;100.00;102523.56;4976625;28;20510;-72
2023/02/10 03:02:13;;;;;;;90.78;35.42;;;2.50;99.90;;;0.93;100.00;102521.13;4991280;28;20022;-72
2023/02/10 03:04:40;;;;;;;86.95;36.05;;;2.60;99.90;;;0.99;100.00;102511.78;4988177;28;20089;-71
2023/02/10 03:07:06;;;;;;;87.28;36.10;;;2.60;99.90;;;1.03;100.00;102521.38;4990107;28;20042;-72
2023/02/10 03:09:34;;;;;;;101.43;35.90;;;2.70;99.90;;;1.08;100.00;102521.50;4998599;28;20058;-72
2023/02/10 03:12:00;;;;;;;93.68;37.67;;;2.70;99.90;;;1.13;100.00;102513.81;4996764;28;20034;-72
2023/02/10 03:14:26;;;;;;;86.45;34.78;;;2.80;99.90;;;1.19;100.00;102530.38;4998182;28;20553;-72
2023/02/10 03:16:52;;;;;;;89.60;36.55;;;2.80;99.90;;;1.26;100.00;102530.50;4992370;28;20034;-72
2023/02/10 03:19:17;;;;;;;89.60;35.80;;;2.90;99.90;;;1.32;100.00;102534.09;4997149;28;20088;-72
2023/02/10 03:21:44;;;;;;;87.97;35.38;;;2.90;99.90;;;1.36;100.00;102540.22;4991354;28;20038;-72
2023/02/10 03:24:09;;;;;;;91.10;35.75;;;3.00;99.90;;;1.40;100.00;102539.44;4996279;28;20041;-73
2023/02/10 03:26:37;;;;;;;98.57;38.50;;;3.00;99.90;;;1.44;100.00;102543.84;4990744;28;20042;-72
2023/02/10 03:29:04;;;;;;;92.20;37.53;;;3.00;99.90;;;1.44;100.00;102534.31;4991553;28;20042;-72
2023/02/10 03:31:29;;;;;;;91.32;37.85;;;3.10;99.90;;;1.48;100.00;102537.88;4989419;28;20037;-72
2023/02/10 03:33:55;;;;;;;83.30;36.05;;;3.10;99.90;;;1.47;100.00;102540.44;4992411;28;20101;-72
2023/02/10 03:36:21;;;;;;;82.47;36.03;;;3.10;99.90;;;1.48;100.00;102535.28;4985135;28;20038;-72
2023/02/10 03:38:47;;;;;;;101.55;37.92;;;3.10;99.90;;;1.44;100.00;102531.72;4979739;28;20031;-72
2023/02/10 03:41:13;;;;;;;97.65;37.05;;;3.10;99.90;;;1.44;100.00;102536.91;4998065;28;20167;-73
2023/02/10 03:43:41;;;;;;;101.55;37.47;;;3.10;99.90;;;1.43;100.00;102537.78;4990172;28;20120;-72
2023/02/10 03:46:09;;;;;;;98.72;37.03;;;3.10;99.90;;;1.42;100.00;102537.75;4981540;28;20045;-72
2023/02/10 03:48:35;;;;;;;101.75;36.47;;;3.10;99.90;;;1.38;100.00;102531.63;4990349;28;20526;-72
2023/02/10 03:51:04;;;;;;;103.78;37.65;;;3.10;99.90;;;1.37;100.00;102532.47;4990155;28;20069;-72
2023/02/10 03:53:31;;;;;;;105.22;38.03;;;3.10;99.90;;;1.39;100.00;102537.69;4979972;28;20064;-73
2023/02/10 03:55:57;;;;;;;99.68;38.92;;;3.10;99.90;;;1.41;100.00;102546.38;4998479;28;20513;-72
2023/02/10 03:58:23;;;;;;;101.70;39.25;;;3.10;99.90;;;1.45;100.00;102540.41;4992266;28;20089;-73
2023/02/10 04:00:49;;;;;;;96.05;37.38;;;3.10;99.90;;;1.45;100.00;102532.63;4981983;28;20038;-72
2023/02/10 04:03:15;;;;;;;96.25;36.85;;;3.10;99.90;;;1.44;100.00;102526.53;4989698;28;20039;-72
2023/02/10 04:05:41;;;;;;;108.97;37.47;;;3.20;99.90;;;1.48;100.00;102543.06;4991586;28;20045;-72
2023/02/10 04:08:08;;;;;;;95.18;37.50;;;3.20;99.90;;;1.48;100.00;102535.28;4996621;28;20113;-72
2023/02/10 04:10:34;;;;;;;98.68;38.55;;;3.20;99.90;;;1.42;100.00;102538.59;4988864;28;20172;-72
2023/02/10 04:13:00;;;;;;;96.25;38.05;;;3.10;99.90;;;1.44;100.00;102546.44;4980736;28;20038;-72
2023/02/10 04:15:25;;;;;;;97.60;39.00;;;3.10;99.90;;;1.43;100.00;102552.50;4997509;28;20038;-73
2023/02/10 04:17:51;;;;;;;103.45;37.67;;;3.10;99.90;;;1.49;100.00;102555.22;4997314;28;20058;-73
2023/02/10 04:20:17;;;;;;;106.30;39.20;;;3.20;99.90;;;1.51;100.00;102548.34;4989090;28;20062;-72
2023/02/10 04:22:44;;;;;;;105.57;39.08;;;3.20;99.90;;;1.54;100.00;102552.72;5005224;28;20530;-73
2023/02/10 04:25:10;;;;;;;102.10;39.40;;;3.70;99.90;;;1.57;100.00;102555.34;4981025;28;20054;-73
2023/02/10 04:27:36;;;;;;;111.22;39.60;;;3.20;99.90;;;1.60;100.00;102555.44;4997638;28;20034;-73
2023/02/10 04:30:02;;;;;;;95.75;38.70;;;3.30;99.90;;;1.62;100.00;102546.81;4989631;28;20089;-73
2023/02/10 04:32:28;;;;;;;93.82;38.58;;;3.30;99.90;;;1.65;100.00;102540.81;4989939;28;20037;-73
2023/02/10 04:34:54;;;;;;;98.50;38.67;;;3.30;99.90;;;1.68;100.00;102534.78;4995573;28;20036;-73
2023/02/10 04:37:20;;;;;;;107.43;39.75;;;3.30;99.90;;;1.68;100.00;102535.66;4984238;28;20053;-73
2023/02/10 04:39:46;;;;;;;97.20;38.10;;;3.40;99.90;;;1.71;100.00;102534.88;4965100;28;20038;-75
2023/02/10 04:42:11;;;;;;;108.13;38.58;;;3.40;99.90;;;1.73;100.00;102534.03;4985701;28;20518;-73
2023/02/10 04:44:37;;;;;;;101.75;39.55;;;3.40;99.90;;;1.77;100.00;102541.06;4991805;28;20065;-73
2023/02/10 04:47:03;;;;;;;97.55;38.63;;;3.40;99.90;;;1.77;100.00;102540.16;4996067;28;20029;-74
2023/02/10 04:49:29;;;;;;;105.35;39.78;;;3.40;99.90;;;1.76;100.00;102544.47;4988596;28;20034;-73
2023/02/10 04:51:55;;;;;;;104.60;39.03;;;3.50;99.90;;;1.77;100.00;102541.06;4989062;28;20041;-73
2023/02/10 04:54:21;;;;;;;96.93;39.20;;;3.50;99.90;;;1.80;100.00;102535.91;4962745;28;20126;-73
2023/02/10 04:56:47;;;;;;;96.93;38.75;;;3.50;99.90;;;1.82;100.00;102541.13;4989235;28;20038;-73
2023/02/10 04:59:13;;;;;;;102.60;37.25;;;3.50;99.90;;;1.82;100.00;102535.94;4977284;28;20446;-73
2023/02/10 05:01:39;;;;;;;100.15;38.72;;;3.50;99.90;;;1.85;100.00;102530.78;4984869;28;20065;-73
2023/02/10 05:04:05;;;;;;;102.85;37.20;;;3.50;99.90;;;1.87;100.00;102523.03;4987660;28;20125;-73
2023/02/10 05:06:32;;;;;;;101.10;38.28;;;3.50;99.90;;;1.89;100.00;102534.31;4980684;28;20082;-73
2023/02/10 05:08:58;;;;;;;124.38;37.92;;;3.50;99.90;;;1.90;100.00;102521.38;4979880;28;20039;-73
2023/02/10 05:11:26;;;;;;;96.85;36.35;;;3.60;99.90;;;1.94;100.00;102527.47;4996257;28;20040;-73
2023/02/10 05:13:52;;;;;;;100.57;38.20;;;3.60;99.90;;;1.95;100.00;102527.50;4992549;28;20078;-73
2023/02/10 05:16:18;;;;;;;96.78;38.60;;;3.60;99.90;;;1.93;100.00;102531.81;4979046;28;20772;-73
2023/02/10 05:18:43;;;;;;;100.65;35.03;;;3.60;99.90;;;1.93;100.00;102530.94;4989298;28;20043;-72
2023/02/10 05:21:12;;;;;;;85.05;36.03;;;3.60;99.90;;;1.94;100.00;102533.53;4993884;28;20034;-73
2023/02/10 05:23:40;;;;;;;97.65;36.65;;;3.60;99.90;;;1.95;100.00;102537.03;4987826;28;20034;-73
2023/02/10 05:26:07;;;;;;;101.50;36.15;;;3.60;99.90;;;1.92;100.00;102531.75;4986551;28;20442;-73
2023/02/10 05:28:32;;;;;;;102.30;37.60;;;3.60;99.90;;;1.92;100.00;102535.22;4995341;28;20039;-73
2023/02/10 05:30:58;;;;;;;115.03;37.63;;;3.60;99.90;;;1.94;100.00;102535.28;4987054;28;20045;-73
2023/02/10 05:33:24;;;;;;;96.88;35.80;;;3.60;99.90;;;1.93;100.00;102542.19;4988770;28;20030;-73
2023/02/10 05:35:50;;;;;;;96.22;37.92;;;3.60;99.90;;;1.91;100.00;102545.63;4997108;28;21507;-73
2023/02/10 05:38:16;;;;;;;96.88;35.50;;;3.60;99.90;;;1.91;100.00;102550.81;4989019;28;20041;-73
2023/02/10 05:40:41;;;;;;;96.78;35.90;;;3.60;99.90;;;1.91;100.00;102556.00;4996942;28;20530;-73
2023/02/10 05:43:09;;;;;;;100.47;35.90;;;3.60;99.90;;;1.92;100.00;102555.16;4995313;28;20030;-73
2023/02/10 05:45:35;;;;;;;90.28;35.30;;;3.60;99.90;;;1.91;100.00;102561.22;4987341;28;20446;-72
2023/02/10 05:48:01;;;;;;;103.75;35.53;;;3.60;99.90;;;1.91;100.00;102562.06;4986400;28;20030;-73
2023/02/10 05:50:29;;;;;;;105.45;37.70;;;3.60;99.90;;;1.89;100.00;102557.69;4991235;28;20041;-73
2023/02/10 05:52:55;;;;;;;107.32;35.53;;;3.60;99.90;;;1.90;100.00;102555.16;4986967;28;20498;-73
2023/02/10 05:55:21;;;;;;;97.60;35.85;;;3.50;99.90;;;1.87;100.00;102551.59;4979115;28;20038;-73
2023/02/10 05:57:47;;;;;;;99.13;35.38;;;3.50;99.90;;;1.83;100.00;102551.53;4995239;28;20915;-74
2023/02/10 06:00:14;;;;;;;90.68;36.25;;;3.50;99.90;;;1.85;100.00;102557.63;4985831;28;20038;-73
2023/02/10 06:02:39;;;;;;;98.90;35.83;;;3.50;99.90;;;1.85;100.00;102564.56;4996651;28;20031;-73
2023/02/10 06:05:06;;;;;;;98.93;36.97;;;3.60;99.90;;;1.89;100.00;102568.09;4985498;28;20385;-73
2023/02/10 06:07:32;;;;;;;105.45;35.65;;;3.50;99.90;;;1.92;100.00;102575.94;4984997;28;20050;-74
2023/02/10 06:09:57;;;;;;;88.82;36.17;;;3.60;99.90;;;1.96;100.00;102580.34;4993771;28;20135;-74
2023/02/10 06:12:23;;;;;;;105.93;36.60;;;3.60;99.90;;;2.00;100.00;102583.03;4982517;28;20033;-74
2023/02/10 06:14:49;;;;;;;91.55;34.22;;;3.60;99.90;;;2.02;100.00;102588.25;5003455;28;20046;-73
2023/02/10 06:17:15;;;;;;;98.30;35.63;;;3.60;99.90;;;2.04;100.00;102586.56;4996946;28;20038;-75
2023/02/10 06:19:40;;;;;;;88.78;34.55;;;3.70;99.90;;;2.05;100.00;102586.59;4978830;28;20041;-73
2023/02/10 06:22:08;;;;;;;94.65;34.75;;;3.70;99.90;;;2.06;100.00;102597.84;4985327;28;20038;-73
2023/02/10 06:24:34;;;;;;;105.57;35.42;;;3.70;99.90;;;2.08;100.00;102598.78;4988596;28;20121;-74
2023/02/10 06:27:00;;;;;;;82.00;32.97;;;3.70;99.90;;;2.09;100.00;102594.44;5004397;28;20391;-74
2023/02/10 06:29:26;;;;;;;93.15;33.90;;;3.70;99.90;;;2.12;100.00;102604.91;4994220;28;20082;-75
2023/02/10 06:31:52;;;;;;;84.28;32.45;;;3.70;99.90;;;2.11;100.00;102611.81;4992447;28;20618;-74
2023/02/10 06:34:18;;;;;;;81.70;33.42;;;3.80;99.90;;;2.14;100.00;102609.28;5012012;28;20042;-74
2023/02/10 06:36:44;;;;;;;93.22;32.55;;;3.80;99.90;;;2.14;100.00;102617.06;4990836;28;20117;-74
2023/02/10 06:39:12;;;;;;;81.22;32.08;;;3.80;99.90;;;2.16;100.00;102625.78;4989792;28;20038;-75
2023/02/10 06:41:38;;;;;;;88.35;32.33;;;3.80;99.90;;;2.16;100.00;102623.19;4982326;28;20042;-75
2023/02/10 06:44:04;;;;;;;90.90;32.72;;;3.80;99.90;;;2.20;100.00;102635.38;4992978;28;20100;-74
2023/02/10 06:46:30;;;;;;;86.45;31.00;;;3.80;99.90;;;2.20;100.00;102640.59;4993441;28;20044;-74
2023/02/10 06:48:55;;;;;;;87.38;34.20;;;3.80;99.90;;;2.24;100.00;102642.38;4998686;28;20110;-75
2023/02/10 06:51:22;;;;;;;78.03;31.70;;;3.80;99.90;;;2.24;100.00;102642.38;4990834;28;20052;-74
2023/02/10 06:53:51;;;;;;;85.88;30.55;;;3.80;99.90;;;2.25;100.00;102649.34;4990224;28;20077;-74
2023/02/10 06:56:17;;;;;;;86.75;31.67;;;3.80;99.90;;;2.27;100.00;102641.56;4989721;28;20041;-74
2023/02/10 06:58:42;;;;;;;74.68;31.80;;;3.80;99.90;;;2.27;100.00;102641.56;4984153;28;20185;-76
2023/02/10 07:01:16;;;;;;;88.72;32.47;;;3.90;99.90;;;2.30;100.00;102648.56;4998555;28;20117;-74
2023/02/10 07:03:45;;;;;;;78.40;30.88;;;3.90;99.90;;;2.32;100.00;102658.13;4946903;28;20054;-74
2023/02/10 07:06:11;;;;;;;91.45;31.80;;;3.90;99.90;;;2.34;100.00;102652.97;5006996;28;20037;-75
2023/02/10 07:08:36;;;;;;;84.20;31.40;;;3.90;99.90;;;2.33;100.00;102652.06;4988181;28;20091;-75
2023/02/10 07:11:02;;;;;;;83.18;31.40;;;3.90;99.90;;;2.36;100.00;102657.34;4988532;28;20065;-74
2023/02/10 07:13:28;;;;;;;87.38;32.42;;;4.00;99.90;;;2.40;100.00;102647.88;4999268;28;20034;-75
2023/02/10 07:15:54;;;;;;;89.22;31.15;;;4.00;99.90;;;2.42;100.00;102652.25;4980594;28;20167;-75
2023/02/10 07:18:20;;;;;;;85.95;31.02;;;4.00;99.90;;;2.46;100.00;102643.66;4993787;28;20092;-75
2023/02/10 07:20:46;;;;;;;80.38;32.20;;;4.00;99.90;;;2.46;100.00;102645.34;4968504;28;20038;-75
2023/02/10 07:23:11;;;;;;;78.18;29.38;;;4.00;99.90;;;2.49;100.00;102658.44;4986887;28;20048;-75
2023/02/10 07:25:37;;;;;;;93.47;30.50;;;4.10;99.90;;;2.53;100.00;102678.44;4957643;28;20057;-75
2023/02/10 07:28:03;;;;;;;78.78;30.13;;;4.10;99.90;;;2.52;100.00;102681.00;4990566;28;20056;-75
2023/02/10 07:30:29;;;;;;;82.55;28.55;;;4.10;99.90;;;2.54;100.00;102689.72;4969865;28;20037;-75
2023/02/10 07:32:55;;;;;;;80.20;30.38;;;4.10;99.90;;;2.58;100.00;102695.00;4980539;28;20664;-75
2023/02/10 07:35:21;;;;;;;83.18;29.63;;;4.10;99.90;;;2.59;100.00;102701.97;4944740;28;20129;-74
2023/02/10 07:37:46;;;;;;;79.43;29.33;;;4.10;99.90;;;2.62;100.00;102696.81;4983958;28;20030;-74
2023/02/10 07:40:15;;;;;;;74.97;28.85;;;4.20;99.90;;;2.62;100.00;102708.94;4980907;28;20112;-75
2023/02/10 07:42:41;;;;;;;85.88;30.35;;;4.20;99.90;;;2.63;100.00;102713.28;4976017;28;20027;-75
2023/02/10 07:45:07;;;;;;;98.45;30.08;;;4.20;99.90;;;2.61;100.00;102713.28;4996078;28;20046;-75
2023/02/10 07:47:33;;;;;;;84.68;29.92;;;4.20;99.90;;;2.67;100.00;102722.91;4972913;28;20118;-75
2023/02/10 07:49:59;;;;;;;85.35;30.13;;;4.20;99.90;;;2.71;100.00;102723.84;4989433;28;21687;-75
2023/02/10 07:52:25;;;;;;;78.85;28.83;;;4.20;99.90;;;2.74;100.00;102722.16;4990405;28;20134;-76
2023/02/10 07:54:50;;;;;;;88.40;30.20;;;4.30;99.90;;;2.80;100.00;102721.38;4989543;28;20046;-75
2023/02/10 07:57:18;;;;;;;75.82;27.40;;;4.30;99.90;;;2.85;100.00;102710.22;4958197;28;20038;-75
2023/02/10 07:59:44;;;;;;;87.10;29.45;;;4.30;99.90;;;2.87;100.00;102705.03;4994434;28;20022;-75
2023/02/10 08:02:13;;;;;;;77.90;29.08;;;4.40;99.90;;;2.90;100.00;102705.09;4974691;28;20040;-75
2023/02/10 08:04:38;;;;;;;85.65;27.60;;;4.40;99.90;;;2.91;100.00;102698.16;4975557;28;20046;-75
2023/02/10 08:07:04;;;;;;;76.68;27.90;;;4.50;99.90;;;2.97;100.00;102706.06;4980880;28;20031;-75
2023/02/10 08:09:30;;;;;;;75.53;27.45;;;4.50;99.90;;;2.97;100.00;102713.88;4996422;28;20046;-75
2023/02/10 08:12:01;;;;;;;84.20;29.45;;;4.50;99.90;;;3.05;99.67;102722.69;4996429;28;20376;-75
2023/02/10 08:14:27;;;;;;;72.93;29.50;;;4.60;99.90;;;3.05;99.85;102728.78;4995083;28;20034;-75
2023/02/10 08:16:53;;;;;;;85.10;29.63;;;4.60;99.90;;;3.10;99.90;102726.25;4985460;28;20105;-77
2023/02/10 08:19:19;;;;;;;84.32;29.73;;;4.60;99.90;;;3.16;99.61;102720.28;4973116;28;20045;-76
2023/02/10 08:21:45;;;;;;;98.00;30.83;;;4.60;99.90;;;3.16;99.47;102725.47;4981653;28;20050;-75
2023/02/10 08:24:18;;;;;;;82.57;30.13;;;4.60;99.90;;;3.14;99.27;102720.22;4987067;28;20038;-75
2023/02/10 08:26:44;;;;;;;80.72;29.60;;;4.60;99.90;;;3.14;99.22;102722.84;4974972;28;20034;-75
2023/02/10 08:29:10;;;;;;;98.88;30.55;;;4.70;99.90;;;3.16;99.08;102731.53;5003928;28;20108;-75
2023/02/10 08:31:36;;;;;;;80.53;28.95;;;4.70;99.90;;;3.11;99.16;102721.91;4981140;28;20034;-75
2023/02/10 08:34:01;;;;;;;73.93;29.05;;;4.60;99.90;;;3.05;99.36;102723.56;4971606;28;20033;-75
2023/02/10 08:36:27;;;;;;;83.78;28.35;;;4.60;99.90;;;3.03;99.36;102740.00;4973061;28;21191;-76
2023/02/10 08:38:55;;;;;;;88.38;29.48;;;4.60;99.90;;;3.03;99.45;102735.69;4986945;28;20092;-76
2023/02/10 08:41:21;;;;;;;89.65;28.70;;;4.60;99.90;;;3.05;99.55;102736.56;4978800;28;20511;-75
2023/02/10 08:43:47;;;;;;;82.38;30.25;;;4.60;99.90;;;3.07;99.97;102745.28;4965403;28;20069;-76
2023/02/10 08:46:13;;;;;;;28.55;13.23;;;4.60;99.90;;;3.09;99.76;102747.94;4964290;28;20052;-77
2023/02/10 08:48:39;;;;;;;94.70;32.03;;;4.60;99.90;;;3.05;99.92;102740.91;4962605;28;20037;-76
2023/02/10 08:51:08;;;;;;;78.05;29.98;;;4.60;99.90;;;3.01;99.68;102731.31;4985804;28;20518;-75
2023/02/10 08:53:34;;;;;;;70.20;27.15;;;4.50;99.90;;;3.03;100.00;102729.59;4979045;28;20030;-75
2023/02/10 08:56:07;;;;;;;70.35;28.13;;;4.50;99.90;;;3.01;100.00;102731.31;4964638;28;20037;-76
2023/02/10 08:58:34;;;;;;;69.57;27.38;;;4.60;99.90;;;3.06;100.00;102738.31;4979006;28;20498;-75
2023/02/10 09:01:01;;;;;;;87.60;29.73;;;4.60;99.90;;;3.05;100.00;102743.53;4998404;28;20140;-76
2023/02/10 09:03:28;;;;;;;77.90;28.95;;;4.60;99.90;;;3.05;100.00;102749.59;4987705;28;20046;-75
2023/02/10 09:05:54;;;;;;;89.25;29.15;;;4.60;99.90;;;3.10;100.00;102749.66;4988643;28;20039;-76
2023/02/10 09:08:20;;;;;;;88.97;30.67;;;4.60;99.90;;;3.11;100.00;102747.94;4995050;28;20417;-75
2023/02/10 09:10:47;;;;;;;74.70;29.20;;;4.60;99.90;;;3.14;100.00;102754.06;4976223;28;20480;-76
2023/02/10 09:13:13;;;;;;;80.10;28.38;;;4.70;99.90;;;3.15;100.00;102745.41;4977287;28;20519;-75
2023/02/10 09:15:42;;;;;;;79.13;28.63;;;4.70;99.90;;;3.18;100.00;102755.88;4963270;28;20100;-76
2023/02/10 09:18:12;;;;;;;86.57;30.00;;;4.70;99.90;;;3.23;100.00;102750.75;4976697;28;20026;-76
2023/02/10 09:20:38;;;;;;;86.38;29.83;;;4.70;99.90;;;3.27;100.00;102760.38;4975737;28;20036;-76
2023/02/10 09:23:05;;;;;;;85.10;29.70;;;4.70;99.90;;;3.28;99.58;102763.00;4987222;28;20065;-75
2023/02/10 09:25:36;;;;;;;77.82;30.27;;;4.80;99.90;;;3.31;100.00;102762.16;4992041;28;20515;-75
2023/02/10 09:28:02;;;;;;;84.00;30.10;;;4.80;99.90;;;3.30;100.00;102770.81;4988581;28;20154;-76
2023/02/10 09:30:29;;;;;;;76.55;29.08;;;4.80;99.90;;;3.29;100.00;102763.88;4967352;28;20041;-76
2023/02/10 09:32:58;;;;;;;79.78;28.30;;;4.80;99.90;;;3.36;99.93;102759.63;4983540;28;20057;-78
2023/02/10 09:35:32;;;;;;;100.43;29.98;;;4.90;99.90;;;3.46;100.00;102764.16;4981880;28;20507;-76
2023/02/10 09:38:01;;;;;;;75.65;28.45;;;4.90;99.90;;;3.60;99.73;102759.13;4992566;28;20068;-76
2023/02/10 09:40:33;;;;;;;81.30;29.35;;;5.00;99.90;;;3.64;99.89;102760.94;4961714;28;20086;-75
2023/02/10 09:43:21;;;;;;;73.78;28.23;;;4.70;99.90;;;3.72;99.59;102753.25;4961550;28;20029;-76
2023/02/10 09:46:01;;;;;;;81.15;27.45;;;5.10;99.90;;;3.63;99.27;102754.84;4991374;28;20141;-76
2023/02/10 09:49:11;;;;;;;90.43;30.40;;;5.10;99.90;;;3.70;99.24;102764.50;4989936;28;20042;-76
2023/02/10 09:52:33;;;;;;;87.18;30.90;;;5.20;99.90;;;3.81;99.23;102764.66;4993627;28;20041;-76
2023/02/10 09:55:01;;;;;;;93.63;31.08;;;5.30;99.90;;;3.90;99.41;102774.31;4974687;28;20129;-75
2023/02/10 09:57:42;;;;;;;86.97;30.30;;;5.30;99.90;;;3.93;99.31;102774.38;4946354;28;20026;-76
2023/02/10 10:00:47;;;;;;;92.15;31.38;;;5.40;99.90;;;3.93;98.87;102778.69;4954511;28;20030;-76
2023/02/10 10:03:34;;;;;;;79.35;28.63;;;5.40;99.90;;;3.99;98.71;102786.59;4985996;28;20093;-76
2023/02/10 10:06:23;;;;;;;85.85;29.73;;;5.40;99.90;;;4.08;98.71;102778.91;4979305;28;20049;-76
2023/02/10 10:08:58;;;;;;;89.10;30.88;;;5.50;99.90;;;4.17;98.49;102785.97;4981312;28;20651;-76
2023/02/10 10:11:47;;;;;;;77.55;29.70;;;5.50;99.90;;;4.25;97.91;102786.94;4989460;28;20038;-76
2023/02/10 10:14:43;;;;;;;81.30;30.25;;;5.60;99.90;;;4.29;98.02;102797.44;4982890;28;20134;-76
2023/02/10 10:17:43;;;;;;;81.07;29.20;;;5.70;99.90;;;4.32;97.51;102794.88;4970535;28;20078;-75
2023/02/10 10:20:48;;;;;;;90.47;29.10;;;5.70;99.90;;;4.36;97.06;102792.31;4976673;28;20089;-76